createdAt,value
2019-05-10T00:00:50.454Z,1.92
2019-05-10T00:03:37.308Z,1.95
2019-05-10T00:06:24.065Z,1.98
2019-05-10T00:08:51.851Z,1.87
2019-05-10T00:11:38.903Z,1.72
2019-05-10T00:14:28.159Z,2.42
2019-05-10T00:16:58.600Z,2.67
2019-05-10T00:19:27.066Z,3.00
2019-05-10T00:21:55.595Z,2.83
2019-05-10T00:24:24.135Z,2.92
2019-05-10T00:26:52.843Z,2.50
2019-05-10T00:29:21.744Z,2.80
2019-05-10T00:31:50.191Z,2.40
2019-05-10T00:34:18.654Z,2.05
2019-05-10T00:36:47.104Z,2.65
2019-05-10T00:39:19.200Z,2.50
2019-05-10T00:41:46.064Z,2.40
2019-05-10T00:44:14.603Z,2.58
2019-05-10T00:46:43.396Z,2.75
2019-05-10T00:49:11.849Z,3.17
2019-05-10T00:51:40.324Z,2.60
2019-05-10T00:54:08.789Z,2.80
2019-05-10T00:56:37.247Z,3.40
2019-05-10T00:59:06.032Z,4.17
2019-05-10T01:01:34.496Z,4.47
2019-05-10T01:04:03.318Z,4.17
2019-05-10T01:06:31.859Z,3.90
2019-05-10T01:09:00.691Z,5.12
2019-05-10T01:11:29.688Z,3.35
2019-05-10T01:13:58.130Z,7.05
2019-05-10T01:16:26.675Z,10.08
2019-05-10T01:18:55.123Z,6.08
2019-05-10T01:21:23.940Z,7.28
2019-05-10T01:23:52.391Z,7.87
2019-05-10T01:26:20.855Z,7.90
2019-05-10T01:28:49.303Z,7.28
2019-05-10T01:31:19.338Z,6.78
2019-05-10T01:33:47.792Z,8.63
2019-05-10T01:36:16.591Z,5.25
2019-05-10T01:38:45.379Z,5.22
2019-05-10T01:41:14.244Z,4.70
2019-05-10T01:43:42.727Z,4.22
2019-05-10T01:46:11.196Z,3.98
2019-05-10T01:48:39.648Z,6.60
2019-05-10T01:51:08.435Z,5.62
2019-05-10T01:53:37.319Z,4.60
2019-05-10T01:56:05.797Z,4.42
2019-05-10T01:58:34.379Z,4.83
2019-05-10T02:01:03.153Z,4.50
2019-05-10T02:03:31.982Z,4.95
2019-05-10T02:06:00.452Z,5.72
2019-05-10T02:08:28.899Z,5.00
2019-05-10T02:10:57.368Z,4.58
2019-05-10T02:13:25.815Z,5.05
2019-05-10T02:15:54.611Z,5.90
2019-05-10T02:18:23.064Z,5.67
2019-05-10T02:20:51.891Z,5.22
2019-05-10T02:23:20.683Z,5.10
2019-05-10T02:25:49.491Z,5.25
2019-05-10T02:28:18.019Z,4.78
2019-05-10T02:30:46.766Z,5.60
2019-05-10T02:33:15.304Z,6.30
2019-05-10T02:35:44.149Z,6.65
2019-05-10T02:38:12.945Z,6.67
2019-05-10T02:40:41.824Z,5.42
2019-05-10T02:43:10.290Z,5.20
2019-05-10T02:45:38.748Z,5.53
2019-05-10T02:48:07.601Z,5.10
2019-05-10T02:50:36.121Z,6.22
2019-05-10T02:53:04.727Z,6.15
2019-05-10T02:55:34.720Z,5.28
2019-05-10T02:58:03.360Z,5.62
2019-05-10T03:00:34.663Z,6.37
2019-05-10T03:03:06.185Z,5.78
2019-05-10T03:05:36.574Z,5.33
2019-05-10T03:08:06.142Z,6.70
2019-05-10T03:10:36.760Z,6.85
2019-05-10T03:13:05.553Z,7.37
2019-05-10T03:15:36.488Z,8.43
2019-05-10T03:18:06.456Z,9.50
2019-05-10T03:20:38.268Z,8.70
2019-05-10T03:23:09.314Z,8.53
2019-05-10T03:25:37.820Z,8.13
2019-05-10T03:28:06.816Z,7.35
2019-05-10T03:30:35.331Z,8.05
2019-05-10T03:33:03.877Z,7.78
2019-05-10T03:35:32.530Z,8.65
2019-05-10T03:38:01.362Z,7.72
2019-05-10T03:40:29.879Z,7.95
2019-05-10T03:42:58.640Z,8.75
2019-05-10T03:45:27.117Z,8.95
2019-05-10T03:47:56.021Z,10.32
2019-05-10T03:50:24.480Z,9.50
2019-05-10T03:52:53.303Z,9.23
2019-05-10T03:55:22.088Z,11.60
2019-05-10T03:57:50.561Z,11.97
2019-05-10T04:00:19.228Z,10.10
2019-05-10T04:02:48.065Z,10.25
2019-05-10T04:05:18.188Z,9.83
2019-05-10T04:07:46.654Z,9.23
2019-05-10T04:10:20.093Z,9.18
2019-05-10T04:12:45.757Z,8.80
2019-05-10T04:15:14.689Z,10.75
2019-05-10T04:17:43.584Z,8.68
2019-05-10T04:20:12.371Z,9.45
2019-05-10T04:22:41.165Z,10.72
2019-05-10T04:25:09.756Z,11.05
2019-05-10T04:27:38.302Z,11.30
2019-05-10T04:30:08.289Z,11.83
2019-05-10T04:32:37.166Z,10.80
2019-05-10T04:35:07.279Z,9.50
2019-05-10T04:37:35.755Z,10.00
2019-05-10T04:40:06.024Z,9.68
2019-05-10T04:42:34.572Z,10.30
2019-05-10T04:45:03.376Z,10.93
2019-05-10T04:47:31.905Z,10.48
2019-05-10T04:50:00.546Z,9.73
2019-05-10T04:52:29.076Z,9.25
2019-05-10T04:54:57.607Z,9.18
2019-05-10T04:57:26.407Z,8.53
2019-05-10T04:59:54.884Z,9.00
2019-05-10T05:02:23.692Z,8.78
2019-05-10T05:04:52.485Z,8.18
2019-05-10T05:07:21.011Z,11.25
2019-05-10T05:09:49.563Z,11.63
2019-05-10T05:12:18.016Z,8.03
2019-05-10T05:14:46.744Z,5.62
2019-05-10T05:17:15.187Z,4.70
2019-05-10T05:19:43.655Z,4.87
2019-05-10T05:22:12.107Z,4.90
2019-05-10T05:24:40.575Z,4.58
2019-05-10T05:27:09.367Z,4.00
2019-05-10T05:29:37.905Z,4.90
2019-05-10T05:32:06.652Z,4.83
2019-05-10T05:34:35.536Z,4.08
2019-05-10T05:37:04.051Z,3.02
2019-05-10T05:39:32.816Z,3.40
2019-05-10T05:42:01.336Z,2.75
2019-05-10T05:44:29.883Z,4.28
2019-05-10T05:46:58.345Z,3.08
2019-05-10T05:49:26.813Z,3.52
2019-05-10T05:51:55.335Z,1.82
2019-05-10T05:54:24.182Z,2.65
2019-05-10T05:56:53.041Z,2.72
2019-05-10T05:59:23.825Z,2.00
2019-05-10T06:01:52.290Z,2.25
2019-05-10T06:04:20.807Z,2.10
2019-05-10T06:06:53.634Z,2.10
2019-05-10T06:09:19.468Z,1.90
2019-05-10T06:11:47.987Z,1.67
2019-05-10T06:14:16.463Z,1.42
2019-05-10T06:16:50.863Z,1.75
2019-05-10T06:19:19.876Z,2.02
2019-05-10T06:21:45.600Z,3.05
2019-05-10T06:24:15.847Z,1.72
2019-05-10T06:26:44.413Z,1.90
2019-05-10T06:29:17.349Z,1.95
2019-05-10T06:31:43.055Z,1.87
2019-05-10T06:34:11.531Z,1.50
2019-05-10T06:36:39.995Z,1.72
2019-05-10T06:39:08.866Z,1.40
2019-05-10T06:41:37.403Z,1.65
2019-05-10T06:44:06.287Z,1.50
2019-05-10T06:46:35.045Z,1.32
2019-05-10T06:49:08.460Z,1.40
2019-05-10T06:51:34.124Z,1.35
2019-05-10T06:54:02.952Z,1.70
2019-05-10T06:56:31.419Z,2.00
2019-05-10T06:59:12.217Z,1.40
2019-05-10T07:01:30.432Z,2.42
2019-05-10T07:03:58.955Z,1.60
2019-05-10T07:06:27.736Z,1.60
2019-05-10T07:08:58.078Z,2.40
2019-05-10T07:11:26.756Z,1.85
2019-05-10T07:13:55.647Z,2.05
2019-05-10T07:16:25.898Z,1.60
2019-05-10T07:18:54.840Z,1.25
2019-05-10T07:21:24.483Z,1.37
2019-05-10T07:23:52.932Z,1.40
2019-05-10T07:26:24.415Z,1.40
2019-05-10T07:28:56.840Z,2.35
2019-05-10T07:31:23.640Z,1.50
2019-05-10T07:33:52.337Z,1.52
2019-05-10T07:36:27.261Z,1.62
2019-05-10T07:38:51.554Z,2.50
2019-05-10T07:41:26.762Z,2.60
2019-05-10T07:43:50.476Z,1.82
2019-05-10T07:46:19.018Z,1.40
2019-05-10T07:48:53.251Z,1.62
2019-05-10T07:51:22.729Z,1.60
2019-05-10T07:53:48.765Z,1.05
2019-05-10T07:56:18.127Z,1.75
2019-05-10T07:58:46.916Z,1.65
2019-05-10T08:01:15.813Z,2.25
2019-05-10T08:03:48.455Z,1.57
2019-05-10T08:06:15.594Z,1.80
2019-05-10T08:08:44.259Z,1.70
2019-05-10T08:11:13.131Z,1.10
2019-05-10T08:13:41.580Z,1.47
2019-05-10T08:16:16.777Z,1.62
2019-05-10T08:18:42.495Z,1.62
2019-05-10T08:21:21.793Z,2.30
2019-05-10T08:23:41.491Z,2.35
2019-05-10T08:26:17.527Z,1.85
2019-05-10T08:28:44.430Z,1.20
2019-05-10T08:31:12.410Z,2.83
2019-05-10T08:33:44.235Z,2.30
2019-05-10T08:36:12.191Z,1.50
2019-05-10T08:38:46.210Z,1.57
2019-05-10T08:41:14.764Z,1.30
2019-05-10T08:43:43.238Z,3.90
2019-05-10T08:46:12.157Z,2.22
2019-05-10T08:48:46.174Z,2.72
2019-05-10T08:51:12.542Z,2.20
2019-05-10T08:53:42.078Z,2.47
2019-05-10T08:56:13.672Z,2.37
2019-05-10T08:58:42.189Z,3.35
2019-05-10T09:01:24.015Z,2.35
2019-05-10T09:03:42.026Z,1.50
2019-05-10T09:06:16.291Z,2.08
2019-05-10T09:08:43.167Z,4.95
2019-05-10T09:11:11.582Z,2.02
2019-05-10T09:13:45.094Z,1.77
2019-05-10T09:16:10.597Z,1.80
2019-05-10T09:18:46.227Z,2.08
2019-05-10T09:21:11.524Z,3.17
2019-05-10T09:23:39.837Z,2.40
2019-05-10T09:26:15.298Z,2.77
2019-05-10T09:28:38.849Z,3.30
2019-05-10T09:31:18.810Z,2.12
2019-05-10T09:33:41.033Z,2.00
2019-05-10T09:36:08.039Z,2.70
2019-05-10T09:38:39.288Z,2.90
2019-05-10T09:41:06.827Z,2.70
2019-05-10T09:43:40.576Z,1.90
2019-05-10T09:46:05.797Z,1.47
2019-05-10T09:48:34.637Z,1.90
2019-05-10T09:51:04.491Z,1.90
2019-05-10T09:53:33.452Z,1.95
2019-05-10T09:56:03.319Z,2.02
2019-05-10T09:58:31.988Z,1.52
2019-05-10T10:01:14.059Z,1.87
2019-05-10T10:03:39.828Z,1.95
2019-05-10T10:06:07.392Z,1.10
2019-05-10T10:08:31.322Z,1.42
2019-05-10T10:11:10.438Z,2.30
2019-05-10T10:13:39.480Z,1.45
2019-05-10T10:16:03.919Z,1.87
2019-05-10T10:18:31.404Z,1.20
2019-05-10T10:20:59.851Z,2.75
2019-05-10T10:23:33.074Z,2.30
2019-05-10T10:25:58.508Z,2.52
2019-05-10T10:28:28.652Z,1.80
2019-05-10T10:31:00.004Z,1.20
2019-05-10T10:33:29.084Z,2.60
2019-05-10T10:36:04.584Z,1.92
2019-05-10T10:38:31.098Z,2.25
2019-05-10T10:40:57.963Z,1.67
2019-05-10T10:43:27.207Z,1.27
2019-05-10T10:45:57.492Z,1.12
2019-05-10T10:48:28.482Z,2.42
2019-05-10T10:50:58.672Z,1.90
2019-05-10T10:53:28.351Z,2.00
2019-05-10T10:56:03.437Z,1.52
2019-05-10T10:58:27.740Z,1.50
2019-05-10T11:00:56.191Z,1.37
2019-05-10T11:03:30.499Z,1.70
2019-05-10T11:05:55.205Z,2.52
2019-05-10T11:08:24.048Z,2.00
2019-05-10T11:10:52.843Z,2.00
2019-05-10T11:13:40.594Z,2.00
2019-05-10T11:15:51.818Z,1.75
2019-05-10T11:18:21.673Z,1.30
2019-05-10T11:20:53.937Z,1.92
2019-05-10T11:23:24.643Z,1.45
2019-05-10T11:25:56.293Z,1.22
2019-05-10T11:28:21.660Z,1.30
2019-05-10T11:30:51.199Z,1.40
2019-05-10T11:33:27.223Z,2.05
2019-05-10T11:35:51.392Z,1.70
2019-05-10T11:38:21.455Z,1.32
2019-05-10T11:40:50.160Z,1.30
2019-05-10T11:43:23.663Z,2.10
2019-05-10T11:45:51.317Z,2.35
2019-05-10T11:48:21.473Z,1.60
2019-05-10T11:50:51.398Z,2.08
2019-05-10T11:53:23.859Z,1.37
2019-05-10T11:55:51.735Z,1.27
2019-05-10T11:58:23.766Z,1.65
2019-05-10T12:00:56.485Z,2.10
2019-05-10T12:03:23.367Z,1.20
2019-05-10T12:06:04.578Z,3.02
2019-05-10T12:08:22.707Z,1.82
2019-05-10T12:13:25.012Z,2.87
2019-05-10T12:15:52.580Z,1.32
2019-05-10T12:18:26.556Z,1.82
2019-05-10T12:21:00.333Z,1.30
2019-05-10T12:23:29.486Z,1.30
2019-05-10T12:26:49.398Z,1.10
2019-05-10T12:26:50.471Z,1.98
2019-05-10T12:28:28.480Z,1.30
2019-05-10T12:30:53.191Z,0.80
2019-05-10T12:33:27.538Z,2.25
2019-05-10T12:35:52.523Z,1.27
2019-05-10T12:38:23.462Z,1.60
2019-05-10T12:40:51.469Z,1.32
2019-05-10T12:43:21.119Z,0.90
2019-05-10T12:45:51.750Z,1.10
2019-05-10T12:48:23.136Z,1.50
2019-05-10T12:50:54.405Z,0.93
2019-05-10T12:53:21.484Z,1.50
2019-05-10T12:55:50.444Z,1.15
2019-05-10T12:58:18.906Z,1.75
2019-05-10T13:00:52.701Z,1.52
2019-05-10T13:03:19.378Z,1.27
2019-05-10T13:05:52.444Z,1.32
2019-05-10T13:08:18.601Z,2.25
2019-05-10T13:10:49.718Z,1.32
2019-05-10T13:13:23.026Z,1.12
2019-05-10T13:15:48.148Z,1.10
2019-05-10T13:18:16.946Z,0.93
2019-05-10T13:20:45.735Z,1.47
2019-05-10T13:23:15.966Z,1.10
2019-05-10T13:25:44.388Z,1.70
2019-05-10T13:28:12.856Z,1.17
2019-05-10T13:30:41.721Z,1.07
2019-05-10T13:33:10.195Z,2.00
2019-05-10T13:35:38.795Z,1.40
2019-05-10T13:38:07.595Z,1.15
2019-05-10T13:40:38.993Z,1.80
2019-05-10T13:43:06.611Z,1.15
2019-05-10T13:45:37.597Z,1.00
2019-05-10T13:48:05.636Z,1.80
2019-05-10T13:50:34.414Z,0.82
2019-05-10T13:53:03.217Z,1.50
2019-05-10T13:55:31.739Z,2.52
2019-05-10T13:58:00.495Z,1.40
2019-05-10T14:00:33.956Z,0.70
2019-05-10T14:02:59.209Z,1.07
2019-05-10T14:05:27.996Z,1.07
2019-05-10T14:07:56.913Z,1.52
2019-05-10T14:10:25.526Z,1.05
2019-05-10T14:12:56.199Z,1.22
2019-05-10T14:15:24.907Z,1.30
2019-05-10T14:17:53.707Z,1.00
2019-05-10T14:20:27.522Z,1.42
2019-05-10T14:22:55.860Z,1.30
2019-05-10T14:25:22.874Z,1.00
2019-05-10T14:27:51.414Z,1.40
2019-05-10T14:30:20.327Z,1.07
2019-05-10T14:32:48.795Z,1.07
2019-05-10T14:35:22.418Z,1.30
2019-05-10T14:37:48.374Z,1.57
2019-05-10T14:40:27.311Z,1.00
2019-05-10T14:42:47.179Z,0.95
2019-05-10T14:45:16.304Z,1.12
2019-05-10T14:47:47.864Z,1.20
2019-05-10T14:50:19.575Z,0.95
2019-05-10T14:52:45.904Z,1.40
2019-05-10T14:55:14.595Z,1.10
2019-05-10T14:57:43.062Z,0.85
2019-05-10T15:00:13.241Z,0.90
2019-05-10T15:02:42.103Z,1.15
2019-05-10T15:05:15.873Z,1.00
2019-05-10T15:07:41.364Z,1.27
2019-05-10T15:10:09.957Z,1.12
2019-05-10T15:12:38.427Z,0.88
2019-05-10T15:15:07.317Z,1.10
2019-05-10T15:17:36.083Z,0.90
2019-05-10T15:20:06.466Z,0.80
2019-05-10T15:22:35.004Z,1.05
2019-05-10T15:25:03.825Z,1.10
2019-05-10T15:27:32.592Z,1.02
2019-05-10T15:30:05.092Z,1.05
2019-05-10T15:32:31.575Z,0.98
2019-05-10T15:35:06.948Z,1.32
2019-05-10T15:37:30.199Z,1.20
2019-05-10T15:40:00.399Z,1.80
2019-05-10T15:42:30.505Z,1.30
2019-05-10T15:45:05.179Z,1.00
2019-05-10T15:47:30.408Z,0.85
2019-05-10T15:49:59.970Z,0.68
2019-05-10T15:52:29.343Z,0.90
2019-05-10T15:54:58.215Z,1.02
2019-05-10T15:57:26.739Z,0.90
2019-05-10T15:59:56.851Z,0.82
2019-05-10T16:02:25.411Z,1.20
2019-05-10T16:04:53.963Z,1.05
2019-05-10T16:07:22.692Z,1.35
2019-05-10T16:09:54.381Z,0.82
2019-05-10T16:12:21.415Z,0.90
2019-05-10T16:14:49.881Z,1.10
2019-05-10T16:17:23.571Z,1.60
2019-05-10T16:19:51.008Z,1.77
2019-05-10T16:22:19.315Z,0.75
2019-05-10T16:24:48.133Z,1.02
2019-05-10T16:27:16.929Z,1.27
2019-05-10T16:29:45.724Z,1.37
2019-05-10T16:32:14.172Z,1.70
2019-05-10T16:34:42.995Z,1.40
2019-05-10T16:37:11.444Z,1.60
2019-05-10T16:39:40.276Z,1.05
2019-05-10T16:42:09.069Z,1.45
2019-05-10T16:44:37.534Z,1.27
2019-05-10T16:47:06.243Z,1.40
2019-05-10T16:49:34.715Z,1.60
2019-05-10T16:52:03.524Z,1.27
2019-05-10T16:54:31.990Z,1.77
2019-05-10T16:57:01.491Z,1.60
2019-05-10T16:59:31.416Z,1.90
2019-05-10T17:02:04.156Z,1.55
2019-05-10T17:04:31.946Z,1.60
2019-05-10T17:07:01.087Z,1.70
2019-05-10T17:09:29.884Z,1.72
2019-05-10T17:11:59.235Z,1.32
2019-05-10T17:14:27.989Z,1.40
2019-05-10T17:16:59.770Z,1.60
2019-05-10T17:19:27.869Z,1.40
2019-05-10T17:21:57.534Z,1.50
2019-05-10T17:24:26.002Z,1.25
2019-05-10T17:26:54.803Z,1.72
2019-05-10T17:29:23.339Z,1.57
2019-05-10T17:31:52.091Z,2.20
2019-05-10T17:34:29.178Z,2.10
2019-05-10T17:36:51.745Z,2.58
2019-05-10T17:39:26.237Z,2.52
2019-05-10T17:41:51.763Z,2.90
2019-05-10T17:44:23.165Z,2.85
2019-05-10T17:46:55.405Z,3.02
2019-05-10T17:49:24.587Z,2.37
2019-05-10T17:51:53.059Z,2.37
2019-05-10T17:54:21.509Z,2.40
2019-05-10T17:56:49.979Z,2.52
2019-05-10T17:59:18.430Z,1.90
2019-05-10T18:01:47.215Z,1.90
2019-05-10T18:04:15.662Z,2.30
2019-05-10T18:06:44.500Z,2.20
2019-05-10T18:09:13.291Z,2.45
2019-05-10T18:11:42.921Z,2.20
2019-05-10T18:14:17.707Z,2.30
2019-05-10T18:16:47.838Z,1.70
2019-05-10T18:19:13.275Z,2.02
2019-05-10T18:21:41.743Z,2.10
2019-05-10T18:24:10.547Z,2.20
2019-05-10T18:26:39.642Z,2.15
2019-05-10T18:29:09.186Z,2.15
2019-05-10T18:31:37.668Z,2.30
2019-05-10T18:34:06.448Z,2.05
2019-05-10T18:36:51.286Z,2.50
2019-05-10T18:39:09.140Z,2.20
2019-05-10T18:41:41.419Z,2.50
2019-05-10T18:44:08.626Z,2.40
2019-05-10T18:46:56.803Z,2.42
2019-05-10T18:49:25.595Z,2.85
2019-05-10T18:52:03.329Z,2.40
2019-05-10T18:54:24.522Z,2.35
2019-05-10T18:56:54.138Z,2.30
2019-05-10T18:59:22.659Z,3.25
2019-05-10T19:01:51.122Z,3.37
2019-05-10T19:04:19.575Z,2.60
2019-05-10T19:06:50.215Z,3.12
2019-05-10T19:09:18.203Z,2.95
2019-05-10T19:11:47.064Z,2.65
2019-05-10T19:14:16.291Z,2.85
2019-05-10T19:16:44.827Z,2.72
2019-05-10T19:19:13.572Z,2.50
2019-05-10T19:21:42.035Z,2.95
2019-05-10T19:24:10.478Z,2.90
2019-05-10T19:26:38.962Z,2.65
2019-05-10T19:29:07.727Z,2.30
2019-05-10T19:31:38.078Z,2.80
2019-05-10T19:34:09.232Z,2.58
2019-05-10T19:36:37.264Z,2.65
2019-05-10T19:39:07.312Z,2.72
2019-05-10T19:41:36.084Z,3.25
2019-05-10T19:44:04.778Z,2.72
2019-05-10T19:46:39.391Z,3.25
2019-05-10T19:49:07.592Z,3.08
2019-05-10T19:51:35.259Z,3.08
2019-05-10T19:54:03.947Z,3.70
2019-05-10T19:56:36.900Z,4.17
2019-05-10T19:59:05.581Z,4.75
2019-05-10T20:01:32.845Z,3.58
2019-05-10T20:04:01.388Z,3.33
2019-05-10T20:06:30.151Z,3.60
2019-05-10T20:08:58.619Z,3.25
2019-05-10T20:11:27.063Z,3.55
2019-05-10T20:13:55.529Z,2.83
2019-05-10T20:16:24.300Z,3.83
2019-05-10T20:18:53.087Z,4.17
2019-05-10T20:21:21.888Z,3.50
2019-05-10T20:23:50.679Z,3.25
2019-05-10T20:26:19.128Z,3.70
2019-05-10T20:28:47.596Z,3.33
2019-05-10T20:31:16.048Z,3.55
2019-05-10T20:33:44.519Z,3.83
2019-05-10T20:36:12.965Z,4.17
2019-05-10T20:38:41.507Z,5.35
2019-05-10T20:41:09.951Z,4.60
2019-05-10T20:43:38.783Z,3.87
2019-05-10T20:46:07.359Z,3.98
2019-05-10T20:48:35.831Z,4.10
2019-05-10T20:51:04.279Z,4.17
2019-05-10T20:53:32.746Z,5.00
2019-05-10T20:56:01.463Z,4.78
2019-05-10T20:58:30.299Z,5.10
2019-05-10T21:00:59.092Z,4.75
2019-05-10T21:03:27.879Z,4.67
2019-05-10T21:05:56.687Z,5.00
2019-05-10T21:08:25.226Z,4.08
2019-05-10T21:10:53.751Z,4.25
2019-05-10T21:13:22.539Z,4.50
2019-05-10T21:15:51.440Z,4.40
2019-05-10T21:18:19.933Z,4.70
2019-05-10T21:20:48.725Z,5.83
2019-05-10T21:23:17.609Z,5.40
2019-05-10T21:25:46.054Z,7.72
2019-05-10T21:28:14.892Z,5.90
2019-05-10T21:30:43.343Z,5.72
2019-05-10T21:33:11.817Z,5.85
2019-05-10T21:35:40.654Z,5.50
2019-05-10T21:38:09.452Z,5.70
2019-05-10T21:40:38.248Z,6.12
2019-05-10T21:43:07.143Z,5.72
2019-05-10T21:45:35.587Z,6.08
2019-05-10T21:48:04.038Z,4.92
2019-05-10T21:50:32.808Z,5.30
2019-05-10T21:53:01.325Z,4.90
2019-05-10T21:55:30.183Z,4.58
2019-05-10T21:57:58.966Z,4.87
2019-05-10T22:00:29.160Z,4.75
2019-05-10T22:02:57.607Z,4.55
2019-05-10T22:05:26.148Z,5.30
2019-05-10T22:07:54.675Z,5.42
2019-05-10T22:10:23.552Z,4.97
2019-05-10T22:12:52.348Z,4.97
2019-05-10T22:15:20.887Z,4.75
2019-05-10T22:17:49.335Z,5.28
2019-05-10T22:20:18.114Z,4.60
2019-05-10T22:22:46.567Z,5.03
2019-05-10T22:25:15.035Z,4.53
2019-05-10T22:27:43.771Z,4.60
2019-05-10T22:30:12.827Z,5.03
2019-05-10T22:32:41.659Z,5.60
2019-05-10T22:35:10.197Z,5.50
2019-05-10T22:37:38.650Z,4.60
2019-05-10T22:40:07.537Z,5.22
2019-05-10T22:42:36.054Z,5.33
2019-05-10T22:45:07.027Z,5.53
2019-05-10T22:47:35.471Z,5.67
2019-05-10T22:50:06.563Z,6.03
2019-05-10T22:52:35.012Z,7.17
2019-05-10T22:55:05.095Z,6.70
2019-05-10T22:57:33.615Z,7.03
2019-05-10T23:00:02.782Z,6.60
2019-05-10T23:02:31.580Z,6.35
2019-05-10T23:05:00.304Z,6.08
2019-05-10T23:07:28.832Z,6.58
2019-05-10T23:09:57.296Z,6.55
2019-05-10T23:12:26.035Z,6.80
2019-05-10T23:14:54.499Z,6.30
2019-05-10T23:17:23.027Z,6.37
2019-05-10T23:19:51.495Z,7.75
2019-05-10T23:22:20.211Z,6.15
2019-05-10T23:24:48.979Z,5.80
2019-05-10T23:27:17.693Z,5.70
2019-05-10T23:29:46.168Z,5.58
2019-05-10T23:32:14.943Z,5.72
2019-05-10T23:34:43.735Z,5.10
2019-05-10T23:37:12.259Z,5.65
2019-05-10T23:39:41.550Z,5.50
2019-05-10T23:42:10.144Z,6.72
2019-05-10T23:44:38.675Z,5.85
2019-05-10T23:47:07.492Z,5.45
2019-05-10T23:49:36.284Z,5.08
2019-05-10T23:52:04.956Z,5.40
2019-05-10T23:54:33.547Z,5.30
2019-05-10T23:57:02.035Z,5.33
2019-05-10T23:59:30.484Z,6.22
